Terminal Aerodrome Forecast
Issued by NWS

Home | Current Version | Previous Version | Text Only | Print | Product List | Glossary On
Versions: 1 2 3 4 5 6 7 8 9 10 11 12 13
000
FTUS45 KPSR 242335
TAFIWA
TAF
KIWA 242335Z 2500/2524 26010G20KT P6SM BKN200
     FM250400 27010KT P6SM BKN200
     FM250800 14010KT P6SM BKN250
     FM251800 26010G20KT P6SM SCT250
      AMD LTD TO CLD VIS AND WIND 2503/2513=

USA.gov is the U.S. government's official web portal to all federal, state and local government web resources and services.